sensor_id;sensor_type;location;lat;lon;timestamp;temperature;humidity
1614;DHT22;800;48.824;9.346;2023-04-15T00:00:06;15.20;43.50
1614;DHT22;800;48.824;9.346;2023-04-15T00:02:32;15.10;43.50
1614;DHT22;800;48.824;9.346;2023-04-15T00:04:58;15.00;43.50
1614;DHT22;800;48.824;9.346;2023-04-15T00:07:23;15.00;43.60
1614;DHT22;800;48.824;9.346;2023-04-15T00:09:49;14.80;43.80
1614;DHT22;800;48.824;9.346;2023-04-15T00:12:14;14.70;44.20
1614;DHT22;800;48.824;9.346;2023-04-15T00:14:40;14.50;44.50
1614;DHT22;800;48.824;9.346;2023-04-15T00:17:06;14.40;44.80
1614;DHT22;800;48.824;9.346;2023-04-15T00:19:31;14.20;45.20
1614;DHT22;800;48.824;9.346;2023-04-15T00:21:58;14.10;45.60
1614;DHT22;800;48.824;9.346;2023-04-15T00:24:23;14.00;46.30
1614;DHT22;800;48.824;9.346;2023-04-15T00:26:49;14.00;46.90
1614;DHT22;800;48.824;9.346;2023-04-15T00:29:15;14.10;46.30
1614;DHT22;800;48.824;9.346;2023-04-15T00:31:40;14.10;45.90
1614;DHT22;800;48.824;9.346;2023-04-15T00:34:06;14.10;45.80
1614;DHT22;800;48.824;9.346;2023-04-15T00:36:32;14.10;45.70
1614;DHT22;800;48.824;9.346;2023-04-15T00:38:59;14.10;45.90
1614;DHT22;800;48.824;9.346;2023-04-15T00:41:25;14.10;46.00
1614;DHT22;800;48.824;9.346;2023-04-15T00:43:51;14.00;45.80
1614;DHT22;800;48.824;9.346;2023-04-15T00:46:18;14.00;45.80
1614;DHT22;800;48.824;9.346;2023-04-15T00:48:45;14.00;46.00
1614;DHT22;800;48.824;9.346;2023-04-15T00:51:12;13.90;46.40
1614;DHT22;800;48.824;9.346;2023-04-15T00:53:38;13.90;46.80
1614;DHT22;800;48.824;9.346;2023-04-15T00:56:04;13.90;47.10
1614;DHT22;800;48.824;9.346;2023-04-15T00:58:30;13.90;47.30
1614;DHT22;800;48.824;9.346;2023-04-15T01:00:56;13.90;47.60
1614;DHT22;800;48.824;9.346;2023-04-15T01:03:22;13.90;47.60
1614;DHT22;800;48.824;9.346;2023-04-15T01:05:48;13.80;47.60
1614;DHT22;800;48.824;9.346;2023-04-15T01:08:14;13.70;48.20
1614;DHT22;800;48.824;9.346;2023-04-15T01:10:39;13.80;48.10
1614;DHT22;800;48.824;9.346;2023-04-15T01:13:05;13.80;47.80
1614;DHT22;800;48.824;9.346;2023-04-15T01:15:31;13.80;47.90
1614;DHT22;800;48.824;9.346;2023-04-15T01:18:00;13.70;48.10
1614;DHT22;800;48.824;9.346;2023-04-15T01:20:27;13.70;48.00
1614;DHT22;800;48.824;9.346;2023-04-15T01:22:54;13.70;48.30
1614;DHT22;800;48.824;9.346;2023-04-15T01:25:32;13.70;48.30
1614;DHT22;800;48.824;9.346;2023-04-15T01:27:58;13.80;48.20
1614;DHT22;800;48.824;9.346;2023-04-15T01:30:25;13.90;47.70
1614;DHT22;800;48.824;9.346;2023-04-15T01:32:52;13.90;47.20
1614;DHT22;800;48.824;9.346;2023-04-15T01:35:18;14.00;47.20
1614;DHT22;800;48.824;9.346;2023-04-15T01:37:44;14.00;47.10
1614;DHT22;800;48.824;9.346;2023-04-15T01:40:10;14.10;46.90
1614;DHT22;800;48.824;9.346;2023-04-15T01:42:35;14.10;46.90
1614;DHT22;800;48.824;9.346;2023-04-15T01:45:02;14.10;46.90
1614;DHT22;800;48.824;9.346;2023-04-15T01:47:27;14.10;46.40
1614;DHT22;800;48.824;9.346;2023-04-15T01:49:53;14.10;46.30
1614;DHT22;800;48.824;9.346;2023-04-15T01:52:19;13.90;46.40
1614;DHT22;800;48.824;9.346;2023-04-15T01:54:45;13.80;46.70
1614;DHT22;800;48.824;9.346;2023-04-15T01:57:11;13.60;47.10
1614;DHT22;800;48.824;9.346;2023-04-15T01:59:36;13.50;47.40
1614;DHT22;800;48.824;9.346;2023-04-15T02:02:02;13.40;47.80
1614;DHT22;800;48.824;9.346;2023-04-15T02:04:28;13.30;48.40
1614;DHT22;800;48.824;9.346;2023-04-15T02:06:54;13.30;48.10
1614;DHT22;800;48.824;9.346;2023-04-15T02:09:20;13.40;48.20
1614;DHT22;800;48.824;9.346;2023-04-15T02:11:45;13.50;47.90
1614;DHT22;800;48.824;9.346;2023-04-15T02:14:11;13.50;47.30
1614;DHT22;800;48.824;9.346;2023-04-15T02:16:37;13.50;47.50
1614;DHT22;800;48.824;9.346;2023-04-15T02:19:02;13.50;47.20
1614;DHT22;800;48.824;9.346;2023-04-15T02:21:29;13.50;46.90
1614;DHT22;800;48.824;9.346;2023-04-15T02:23:55;13.60;46.90
1614;DHT22;800;48.824;9.346;2023-04-15T02:26:21;13.60;46.60
1614;DHT22;800;48.824;9.346;2023-04-15T02:28:47;13.40;46.50
1614;DHT22;800;48.824;9.346;2023-04-15T02:31:13;13.20;46.60
1614;DHT22;800;48.824;9.346;2023-04-15T02:33:39;13.00;47.00
1614;DHT22;800;48.824;9.346;2023-04-15T02:36:05;12.90;47.50
1614;DHT22;800;48.824;9.346;2023-04-15T02:38:32;12.70;48.00
1614;DHT22;800;48.824;9.346;2023-04-15T02:40:58;12.50;48.30
1614;DHT22;800;48.824;9.346;2023-04-15T02:43:23;12.40;48.60
1614;DHT22;800;48.824;9.346;2023-04-15T02:45:49;12.20;49.10
1614;DHT22;800;48.824;9.346;2023-04-15T02:48:15;12.10;49.30
1614;DHT22;800;48.824;9.346;2023-04-15T02:50:44;11.90;49.60
1614;DHT22;800;48.824;9.346;2023-04-15T02:53:10;11.90;49.90
1614;DHT22;800;48.824;9.346;2023-04-15T02:55:36;11.70;50.30
1614;DHT22;800;48.824;9.346;2023-04-15T02:58:01;11.70;50.70
1614;DHT22;800;48.824;9.346;2023-04-15T03:00:27;11.60;51.40
1614;DHT22;800;48.824;9.346;2023-04-15T03:02:59;11.50;52.50
1614;DHT22;800;48.824;9.346;2023-04-15T03:05:25;11.60;51.50
1614;DHT22;800;48.824;9.346;2023-04-15T03:07:51;11.80;52.60
1614;DHT22;800;48.824;9.346;2023-04-15T03:10:17;11.50;51.60
1614;DHT22;800;48.824;9.346;2023-04-15T03:12:42;11.50;51.70
1614;DHT22;800;48.824;9.346;2023-04-15T03:15:09;11.40;51.70
1614;DHT22;800;48.824;9.346;2023-04-15T03:17:34;11.40;52.10
1614;DHT22;800;48.824;9.346;2023-04-15T03:20:01;11.30;52.30
1614;DHT22;800;48.824;9.346;2023-04-15T03:22:28;11.20;52.70
1614;DHT22;800;48.824;9.346;2023-04-15T03:24:53;11.20;52.90
1614;DHT22;800;48.824;9.346;2023-04-15T03:27:19;11.20;52.80
1614;DHT22;800;48.824;9.346;2023-04-15T03:29:44;11.20;52.90
1614;DHT22;800;48.824;9.346;2023-04-15T03:32:10;11.20;52.90
1614;DHT22;800;48.824;9.346;2023-04-15T03:34:37;11.20;52.90
1614;DHT22;800;48.824;9.346;2023-04-15T03:37:04;11.20;52.90
1614;DHT22;800;48.824;9.346;2023-04-15T03:39:29;11.20;53.10
1614;DHT22;800;48.824;9.346;2023-04-15T03:41:55;11.00;53.50
1614;DHT22;800;48.824;9.346;2023-04-15T03:44:22;10.80;54.10
1614;DHT22;800;48.824;9.346;2023-04-15T03:46:47;10.40;54.70
1614;DHT22;800;48.824;9.346;2023-04-15T03:49:13;10.20;55.50
1614;DHT22;800;48.824;9.346;2023-04-15T03:51:38;10.10;55.60
1614;DHT22;800;48.824;9.346;2023-04-15T03:54:04;10.20;55.70
1614;DHT22;800;48.824;9.346;2023-04-15T03:56:30;10.40;55.40
1614;DHT22;800;48.824;9.346;2023-04-15T03:58:55;10.40;55.30
1614;DHT22;800;48.824;9.346;2023-04-15T04:01:21;10.30;55.50
1614;DHT22;800;48.824;9.346;2023-04-15T04:03:47;10.00;56.00
1614;DHT22;800;48.824;9.346;2023-04-15T04:06:13;9.70;58.00
1614;DHT22;800;48.824;9.346;2023-04-15T04:08:40;9.70;58.40
1614;DHT22;800;48.824;9.346;2023-04-15T04:11:05;9.80;58.40
1614;DHT22;800;48.824;9.346;2023-04-15T04:13:31;9.90;57.90
1614;DHT22;800;48.824;9.346;2023-04-15T04:15:56;10.00;56.50
1614;DHT22;800;48.824;9.346;2023-04-15T04:18:22;10.10;56.30
1614;DHT22;800;48.824;9.346;2023-04-15T04:20:48;10.00;56.10
1614;DHT22;800;48.824;9.346;2023-04-15T04:23:13;10.10;56.20
1614;DHT22;800;48.824;9.346;2023-04-15T04:25:39;10.10;56.00
1614;DHT22;800;48.824;9.346;2023-04-15T04:28:04;10.20;55.70
1614;DHT22;800;48.824;9.346;2023-04-15T04:30:30;10.40;55.60
1614;DHT22;800;48.824;9.346;2023-04-15T04:32:55;10.40;55.40
1614;DHT22;800;48.824;9.346;2023-04-15T04:35:21;10.40;55.40
1614;DHT22;800;48.824;9.346;2023-04-15T04:37:47;10.40;55.30
1614;DHT22;800;48.824;9.346;2023-04-15T04:40:12;10.40;55.40
1614;DHT22;800;48.824;9.346;2023-04-15T04:42:38;10.40;55.30
1614;DHT22;800;48.824;9.346;2023-04-15T04:45:05;10.40;55.40
1614;DHT22;800;48.824;9.346;2023-04-15T04:47:34;10.30;55.70
1614;DHT22;800;48.824;9.346;2023-04-15T04:50:00;10.20;55.80
1614;DHT22;800;48.824;9.346;2023-04-15T04:52:25;10.30;56.10
1614;DHT22;800;48.824;9.346;2023-04-15T04:54:51;10.30;55.80
1614;DHT22;800;48.824;9.346;2023-04-15T04:57:16;10.20;56.10
1614;DHT22;800;48.824;9.346;2023-04-15T04:59:42;10.20;56.10
1614;DHT22;800;48.824;9.346;2023-04-15T05:02:07;10.30;55.90
1614;DHT22;800;48.824;9.346;2023-04-15T05:04:33;10.10;56.00
1614;DHT22;800;48.824;9.346;2023-04-15T05:06:59;9.90;57.40
1614;DHT22;800;48.824;9.346;2023-04-15T05:09:25;9.70;58.10
1614;DHT22;800;48.824;9.346;2023-04-15T05:11:50;9.80;58.10
1614;DHT22;800;48.824;9.346;2023-04-15T05:14:16;9.80;57.70
1614;DHT22;800;48.824;9.346;2023-04-15T05:16:42;9.90;58.60
1614;DHT22;800;48.824;9.346;2023-04-15T05:19:07;10.10;58.10
1614;DHT22;800;48.824;9.346;2023-04-15T05:21:33;10.20;57.60
1614;DHT22;800;48.824;9.346;2023-04-15T05:23:58;10.50;57.60
1614;DHT22;800;48.824;9.346;2023-04-15T05:26:24;10.70;56.60
1614;DHT22;800;48.824;9.346;2023-04-15T05:28:49;10.90;55.50
1614;DHT22;800;48.824;9.346;2023-04-15T05:31:15;11.10;54.60
1614;DHT22;800;48.824;9.346;2023-04-15T05:33:41;11.30;53.40
1614;DHT22;800;48.824;9.346;2023-04-15T05:36:06;11.30;53.20
1614;DHT22;800;48.824;9.346;2023-04-15T05:38:32;11.20;52.40
1614;DHT22;800;48.824;9.346;2023-04-15T05:40:58;11.10;52.20
1614;DHT22;800;48.824;9.346;2023-04-15T05:43:23;11.10;52.10
1614;DHT22;800;48.824;9.346;2023-04-15T05:45:49;11.10;52.30
1614;DHT22;800;48.824;9.346;2023-04-15T05:48:14;11.20;52.00
1614;DHT22;800;48.824;9.346;2023-04-15T05:50:41;10.70;52.20
1614;DHT22;800;48.824;9.346;2023-04-15T05:53:07;10.50;53.20
1614;DHT22;800;48.824;9.346;2023-04-15T05:55:33;10.10;53.90
1614;DHT22;800;48.824;9.346;2023-04-15T05:57:59;10.20;55.00
1614;DHT22;800;48.824;9.346;2023-04-15T06:00:24;10.50;54.20
1614;DHT22;800;48.824;9.346;2023-04-15T06:02:50;10.80;53.90
1614;DHT22;800;48.824;9.346;2023-04-15T06:05:17;10.50;53.70
1614;DHT22;800;48.824;9.346;2023-04-15T06:07:43;10.30;54.50
1614;DHT22;800;48.824;9.346;2023-04-15T06:10:09;10.30;54.60
1614;DHT22;800;48.824;9.346;2023-04-15T06:12:34;10.10;55.00
1614;DHT22;800;48.824;9.346;2023-04-15T06:15:00;10.10;55.30
1614;DHT22;800;48.824;9.346;2023-04-15T06:17:26;9.80;56.70
1614;DHT22;800;48.824;9.346;2023-04-15T06:19:52;9.40;57.90
1614;DHT22;800;48.824;9.346;2023-04-15T06:22:21;9.50;58.20
1614;DHT22;800;48.824;9.346;2023-04-15T06:24:47;9.40;58.20
1614;DHT22;800;48.824;9.346;2023-04-15T06:27:15;9.50;58.30
1614;DHT22;800;48.824;9.346;2023-04-15T06:29:40;9.50;58.90
1614;DHT22;800;48.824;9.346;2023-04-15T06:32:06;9.40;59.80
1614;DHT22;800;48.824;9.346;2023-04-15T06:34:32;9.60;59.70
1614;DHT22;800;48.824;9.346;2023-04-15T06:36:57;9.70;59.30
1614;DHT22;800;48.824;9.346;2023-04-15T06:39:23;9.70;59.70
1614;DHT22;800;48.824;9.346;2023-04-15T06:41:49;9.90;58.90
1614;DHT22;800;48.824;9.346;2023-04-15T06:44:14;10.10;57.80
1614;DHT22;800;48.824;9.346;2023-04-15T06:46:40;10.40;57.50
1614;DHT22;800;48.824;9.346;2023-04-15T06:49:06;10.70;57.10
1614;DHT22;800;48.824;9.346;2023-04-15T06:51:33;10.90;56.40
1614;DHT22;800;48.824;9.346;2023-04-15T06:53:58;10.90;55.80
1614;DHT22;800;48.824;9.346;2023-04-15T06:56:24;10.70;56.10
1614;DHT22;800;48.824;9.346;2023-04-15T06:58:50;10.60;56.40
1614;DHT22;800;48.824;9.346;2023-04-15T07:01:15;10.80;56.30
1614;DHT22;800;48.824;9.346;2023-04-15T07:03:41;11.00;56.10
1614;DHT22;800;48.824;9.346;2023-04-15T07:06:07;11.00;55.00
1614;DHT22;800;48.824;9.346;2023-04-15T07:08:33;10.90;55.00
1614;DHT22;800;48.824;9.346;2023-04-15T07:11:00;11.10;55.00
1614;DHT22;800;48.824;9.346;2023-04-15T07:13:26;10.90;54.60
1614;DHT22;800;48.824;9.346;2023-04-15T07:15:51;11.00;55.20
1614;DHT22;800;48.824;9.346;2023-04-15T07:18:17;11.00;54.60
1614;DHT22;800;48.824;9.346;2023-04-15T07:20:42;10.80;55.00
1614;DHT22;800;48.824;9.346;2023-04-15T07:23:08;10.90;55.20
1614;DHT22;800;48.824;9.346;2023-04-15T07:25:34;11.30;54.90
1614;DHT22;800;48.824;9.346;2023-04-15T07:27:59;11.50;54.70
1614;DHT22;800;48.824;9.346;2023-04-15T07:30:26;11.70;54.70
1614;DHT22;800;48.824;9.346;2023-04-15T07:32:51;11.90;53.40
1614;DHT22;800;48.824;9.346;2023-04-15T07:35:17;11.90;53.60
1614;DHT22;800;48.824;9.346;2023-04-15T07:37:45;11.90;52.90
1614;DHT22;800;48.824;9.346;2023-04-15T07:40:11;12.10;53.10
1614;DHT22;800;48.824;9.346;2023-04-15T07:42:38;12.40;53.00
1614;DHT22;800;48.824;9.346;2023-04-15T07:45:05;12.70;52.40
1614;DHT22;800;48.824;9.346;2023-04-15T07:47:31;13.00;51.60
1614;DHT22;800;48.824;9.346;2023-04-15T07:49:56;13.20;51.00
1614;DHT22;800;48.824;9.346;2023-04-15T07:52:22;13.50;50.60
1614;DHT22;800;48.824;9.346;2023-04-15T07:54:48;13.70;49.70
1614;DHT22;800;48.824;9.346;2023-04-15T07:57:13;13.70;49.30
1614;DHT22;800;48.824;9.346;2023-04-15T07:59:39;13.80;49.70
1614;DHT22;800;48.824;9.346;2023-04-15T08:02:04;13.90;49.60
1614;DHT22;800;48.824;9.346;2023-04-15T08:04:30;13.40;49.40
1614;DHT22;800;48.824;9.346;2023-04-15T08:06:56;13.70;50.00
1614;DHT22;800;48.824;9.346;2023-04-15T08:09:22;14.00;49.30
1614;DHT22;800;48.824;9.346;2023-04-15T08:11:48;14.30;48.10
1614;DHT22;800;48.824;9.346;2023-04-15T08:14:15;14.60;46.50
1614;DHT22;800;48.824;9.346;2023-04-15T08:16:41;14.80;46.30
1614;DHT22;800;48.824;9.346;2023-04-15T08:19:06;15.00;45.90
1614;DHT22;800;48.824;9.346;2023-04-15T08:21:32;15.30;45.10
1614;DHT22;800;48.824;9.346;2023-04-15T08:23:58;15.50;44.50
1614;DHT22;800;48.824;9.346;2023-04-15T08:26:24;15.60;43.70
1614;DHT22;800;48.824;9.346;2023-04-15T08:28:50;15.40;44.00
1614;DHT22;800;48.824;9.346;2023-04-15T08:31:17;15.60;45.00
1614;DHT22;800;48.824;9.346;2023-04-15T08:33:43;15.90;44.80
1614;DHT22;800;48.824;9.346;2023-04-15T08:36:09;16.20;44.20
1614;DHT22;800;48.824;9.346;2023-04-15T08:38:35;16.40;43.20
1614;DHT22;800;48.824;9.346;2023-04-15T08:41:22;16.60;43.90
1614;DHT22;800;48.824;9.346;2023-04-15T08:44:00;16.90;42.80
1614;DHT22;800;48.824;9.346;2023-04-15T08:46:26;17.20;43.80
1614;DHT22;800;48.824;9.346;2023-04-15T08:48:56;17.50;43.30
1614;DHT22;800;48.824;9.346;2023-04-15T08:51:22;17.80;42.50
1614;DHT22;800;48.824;9.346;2023-04-15T08:53:49;17.90;41.80
1614;DHT22;800;48.824;9.346;2023-04-15T08:56:15;18.00;41.80
1614;DHT22;800;48.824;9.346;2023-04-15T08:58:43;18.20;41.20
1614;DHT22;800;48.824;9.346;2023-04-15T09:01:10;18.30;41.90
1614;DHT22;800;48.824;9.346;2023-04-15T09:03:37;18.40;42.10
1614;DHT22;800;48.824;9.346;2023-04-15T09:06:04;18.60;42.20
1614;DHT22;800;48.824;9.346;2023-04-15T09:08:30;18.60;41.70
1614;DHT22;800;48.824;9.346;2023-04-15T09:10:56;18.70;41.50
1614;DHT22;800;48.824;9.346;2023-04-15T09:13:22;18.90;41.60
1614;DHT22;800;48.824;9.346;2023-04-15T09:15:47;19.00;40.60
1614;DHT22;800;48.824;9.346;2023-04-15T09:18:26;19.10;40.50
1614;DHT22;800;48.824;9.346;2023-04-15T09:20:53;19.30;41.10
1614;DHT22;800;48.824;9.346;2023-04-15T09:23:19;19.40;41.10
1614;DHT22;800;48.824;9.346;2023-04-15T09:25:44;19.50;39.90
1614;DHT22;800;48.824;9.346;2023-04-15T09:28:10;19.40;39.70
1614;DHT22;800;48.824;9.346;2023-04-15T09:30:36;19.40;39.10
1614;DHT22;800;48.824;9.346;2023-04-15T09:33:02;19.60;40.70
1614;DHT22;800;48.824;9.346;2023-04-15T09:35:33;19.70;39.80
1614;DHT22;800;48.824;9.346;2023-04-15T09:38:08;19.60;39.00
1614;DHT22;800;48.824;9.346;2023-04-15T09:40:40;19.60;39.10
1614;DHT22;800;48.824;9.346;2023-04-15T09:43:08;19.70;38.60
1614;DHT22;800;48.824;9.346;2023-04-15T09:45:34;19.70;39.20
1614;DHT22;800;48.824;9.346;2023-04-15T09:48:20;19.80;39.50
1614;DHT22;800;48.824;9.346;2023-04-15T09:50:47;19.80;40.20
1614;DHT22;800;48.824;9.346;2023-04-15T09:53:20;19.90;40.20
1614;DHT22;800;48.824;9.346;2023-04-15T09:58:22;20.10;39.40
1614;DHT22;800;48.824;9.346;2023-04-15T10:00:50;20.00;40.90
1614;DHT22;800;48.824;9.346;2023-04-15T10:03:19;20.10;40.80
1614;DHT22;800;48.824;9.346;2023-04-15T10:05:47;20.10;41.20
1614;DHT22;800;48.824;9.346;2023-04-15T10:08:16;20.30;40.20
1614;DHT22;800;48.824;9.346;2023-04-15T10:10:42;20.50;41.30
1614;DHT22;800;48.824;9.346;2023-04-15T10:13:08;20.80;39.80
1614;DHT22;800;48.824;9.346;2023-04-15T10:15:35;20.90;39.00
1614;DHT22;800;48.824;9.346;2023-04-15T10:18:01;21.00;37.90
1614;DHT22;800;48.824;9.346;2023-04-15T10:20:29;21.10;37.80
1614;DHT22;800;48.824;9.346;2023-04-15T10:22:55;21.10;36.70
1614;DHT22;800;48.824;9.346;2023-04-15T10:25:22;21.10;36.50
1614;DHT22;800;48.824;9.346;2023-04-15T10:27:50;21.00;36.40
1614;DHT22;800;48.824;9.346;2023-04-15T10:30:17;21.10;37.00
1614;DHT22;800;48.824;9.346;2023-04-15T10:32:44;21.20;36.70
1614;DHT22;800;48.824;9.346;2023-04-15T10:35:10;21.10;37.50
1614;DHT22;800;48.824;9.346;2023-04-15T10:37:37;21.20;37.50
1614;DHT22;800;48.824;9.346;2023-04-15T10:40:32;21.40;38.30
1614;DHT22;800;48.824;9.346;2023-04-15T10:43:00;21.40;37.30
1614;DHT22;800;48.824;9.346;2023-04-15T10:45:34;21.60;37.90
1614;DHT22;800;48.824;9.346;2023-04-15T10:48:02;21.80;37.70
1614;DHT22;800;48.824;9.346;2023-04-15T10:50:30;21.90;38.00
1614;DHT22;800;48.824;9.346;2023-04-15T10:52:57;22.20;37.20
1614;DHT22;800;48.824;9.346;2023-04-15T10:55:30;22.30;36.80
1614;DHT22;800;48.824;9.346;2023-04-15T10:58:00;22.40;37.00
1614;DHT22;800;48.824;9.346;2023-04-15T11:00:28;22.50;36.30
1614;DHT22;800;48.824;9.346;2023-04-15T11:02:56;22.40;34.90
1614;DHT22;800;48.824;9.346;2023-04-15T11:08:08;22.40;35.00
1614;DHT22;800;48.824;9.346;2023-04-15T11:13:13;22.00;35.30
1614;DHT22;800;48.824;9.346;2023-04-15T11:15:45;21.90;35.30
1614;DHT22;800;48.824;9.346;2023-04-15T11:18:22;21.70;36.40
1614;DHT22;800;48.824;9.346;2023-04-15T11:20:49;21.50;35.00
1614;DHT22;800;48.824;9.346;2023-04-15T11:23:17;21.70;35.90
1614;DHT22;800;48.824;9.346;2023-04-15T11:25:43;21.80;34.50
1614;DHT22;800;48.824;9.346;2023-04-15T11:28:10;21.70;35.60
1614;DHT22;800;48.824;9.346;2023-04-15T11:30:37;21.50;36.10
1614;DHT22;800;48.824;9.346;2023-04-15T11:33:08;21.40;36.20
1614;DHT22;800;48.824;9.346;2023-04-15T11:35:35;21.70;35.80
1614;DHT22;800;48.824;9.346;2023-04-15T11:38:05;21.70;35.80
1614;DHT22;800;48.824;9.346;2023-04-15T11:40:34;21.80;35.30
1614;DHT22;800;48.824;9.346;2023-04-15T11:45:58;21.70;35.20
1614;DHT22;800;48.824;9.346;2023-04-15T11:48:25;21.30;36.00
1614;DHT22;800;48.824;9.346;2023-04-15T11:50:56;21.30;37.00
1614;DHT22;800;48.824;9.346;2023-04-15T11:53:22;21.50;37.00
1614;DHT22;800;48.824;9.346;2023-04-15T11:55:50;21.60;36.40
1614;DHT22;800;48.824;9.346;2023-04-15T11:58:21;21.80;37.60
1614;DHT22;800;48.824;9.346;2023-04-15T12:00:57;22.00;37.00
1614;DHT22;800;48.824;9.346;2023-04-15T12:03:41;22.10;36.70
1614;DHT22;800;48.824;9.346;2023-04-15T12:06:21;21.90;36.90
1614;DHT22;800;48.824;9.346;2023-04-15T12:11:36;21.60;37.50
1614;DHT22;800;48.824;9.346;2023-04-15T12:14:05;21.40;36.90
1614;DHT22;800;48.824;9.346;2023-04-15T12:16:38;21.30;34.60
1614;DHT22;800;48.824;9.346;2023-04-15T12:19:10;21.20;33.50
1614;DHT22;800;48.824;9.346;2023-04-15T12:21:38;21.10;33.40
1614;DHT22;800;48.824;9.346;2023-04-15T12:24:06;21.20;33.60
1614;DHT22;800;48.824;9.346;2023-04-15T12:26:41;21.20;34.20
1614;DHT22;800;48.824;9.346;2023-04-15T12:29:09;21.10;34.60
1614;DHT22;800;48.824;9.346;2023-04-15T12:31:35;20.90;35.30
1614;DHT22;800;48.824;9.346;2023-04-15T12:34:02;20.50;35.80
1614;DHT22;800;48.824;9.346;2023-04-15T12:36:29;20.00;37.10
1614;DHT22;800;48.824;9.346;2023-04-15T12:38:56;19.90;38.60
1614;DHT22;800;48.824;9.346;2023-04-15T12:41:26;19.70;38.40
1614;DHT22;800;48.824;9.346;2023-04-15T12:44:12;19.60;37.20
1614;DHT22;800;48.824;9.346;2023-04-15T12:46:38;19.50;37.50
1614;DHT22;800;48.824;9.346;2023-04-15T12:49:08;19.20;38.40
1614;DHT22;800;48.824;9.346;2023-04-15T12:51:34;18.90;40.40
1614;DHT22;800;48.824;9.346;2023-04-15T12:54:00;18.40;42.30
1614;DHT22;800;48.824;9.346;2023-04-15T12:56:25;17.70;42.70
1614;DHT22;800;48.824;9.346;2023-04-15T12:58:51;17.00;43.30
1614;DHT22;800;48.824;9.346;2023-04-15T13:01:17;16.80;44.40
1614;DHT22;800;48.824;9.346;2023-04-15T13:03:43;17.20;44.90
1614;DHT22;800;48.824;9.346;2023-04-15T13:06:09;17.60;44.10
1614;DHT22;800;48.824;9.346;2023-04-15T13:08:34;17.70;40.80
1614;DHT22;800;48.824;9.346;2023-04-15T13:11:00;17.80;39.60
1614;DHT22;800;48.824;9.346;2023-04-15T13:13:26;17.90;38.40
1614;DHT22;800;48.824;9.346;2023-04-15T13:15:52;18.00;38.30
1614;DHT22;800;48.824;9.346;2023-04-15T13:18:17;18.30;38.10
1614;DHT22;800;48.824;9.346;2023-04-15T13:20:43;18.30;36.00
1614;DHT22;800;48.824;9.346;2023-04-15T13:23:09;18.40;36.20
1614;DHT22;800;48.824;9.346;2023-04-15T13:25:34;18.50;35.10
1614;DHT22;800;48.824;9.346;2023-04-15T13:28:00;18.60;35.30
1614;DHT22;800;48.824;9.346;2023-04-15T13:30:26;18.70;35.80
1614;DHT22;800;48.824;9.346;2023-04-15T13:32:52;18.80;35.60
1614;DHT22;800;48.824;9.346;2023-04-15T13:35:18;18.90;35.80
1614;DHT22;800;48.824;9.346;2023-04-15T13:37:45;19.00;35.60
1614;DHT22;800;48.824;9.346;2023-04-15T13:40:11;19.00;34.80
1614;DHT22;800;48.824;9.346;2023-04-15T13:42:37;19.00;34.90
1614;DHT22;800;48.824;9.346;2023-04-15T13:45:02;19.00;34.90
1614;DHT22;800;48.824;9.346;2023-04-15T13:47:28;19.10;35.30
1614;DHT22;800;48.824;9.346;2023-04-15T13:49:54;19.20;35.40
1614;DHT22;800;48.824;9.346;2023-04-15T13:52:21;19.10;34.80
1614;DHT22;800;48.824;9.346;2023-04-15T13:54:47;18.90;33.30
1614;DHT22;800;48.824;9.346;2023-04-15T13:57:13;18.70;32.90
1614;DHT22;800;48.824;9.346;2023-04-15T13:59:38;18.80;33.00
1614;DHT22;800;48.824;9.346;2023-04-15T14:02:04;18.70;32.20
1614;DHT22;800;48.824;9.346;2023-04-15T14:04:30;18.80;32.70
1614;DHT22;800;48.824;9.346;2023-04-15T14:06:57;18.70;32.80
1614;DHT22;800;48.824;9.346;2023-04-15T14:09:23;18.80;33.30
1614;DHT22;800;48.824;9.346;2023-04-15T14:11:49;18.90;33.60
1614;DHT22;800;48.824;9.346;2023-04-15T14:14:15;18.80;33.50
1614;DHT22;800;48.824;9.346;2023-04-15T14:16:41;18.80;33.20
1614;DHT22;800;48.824;9.346;2023-04-15T14:19:06;18.60;33.10
1614;DHT22;800;48.824;9.346;2023-04-15T14:21:32;18.50;33.60
1614;DHT22;800;48.824;9.346;2023-04-15T14:23:58;18.50;33.70
1614;DHT22;800;48.824;9.346;2023-04-15T14:26:23;18.60;33.70
1614;DHT22;800;48.824;9.346;2023-04-15T14:28:49;18.60;33.40
1614;DHT22;800;48.824;9.346;2023-04-15T14:31:15;18.60;34.10
1614;DHT22;800;48.824;9.346;2023-04-15T14:33:41;18.50;34.10
1614;DHT22;800;48.824;9.346;2023-04-15T14:36:07;18.60;34.20
1614;DHT22;800;48.824;9.346;2023-04-15T14:38:34;18.70;34.00
1614;DHT22;800;48.824;9.346;2023-04-15T14:41:04;18.70;34.00
1614;DHT22;800;48.824;9.346;2023-04-15T14:43:30;18.60;34.20
1614;DHT22;800;48.824;9.346;2023-04-15T14:45:56;18.60;34.50
1614;DHT22;800;48.824;9.346;2023-04-15T14:48:21;18.60;34.90
1614;DHT22;800;48.824;9.346;2023-04-15T14:50:47;18.60;34.90
1614;DHT22;800;48.824;9.346;2023-04-15T14:53:12;18.30;35.50
1614;DHT22;800;48.824;9.346;2023-04-15T14:55:38;18.30;35.50
1614;DHT22;800;48.824;9.346;2023-04-15T14:58:05;18.30;35.60
1614;DHT22;800;48.824;9.346;2023-04-15T15:00:32;18.50;35.70
1614;DHT22;800;48.824;9.346;2023-04-15T15:02:58;18.50;35.80
1614;DHT22;800;48.824;9.346;2023-04-15T15:05:24;18.40;36.10
1614;DHT22;800;48.824;9.346;2023-04-15T15:07:49;18.40;36.10
1614;DHT22;800;48.824;9.346;2023-04-15T15:10:15;18.40;36.30
1614;DHT22;800;48.824;9.346;2023-04-15T15:12:41;18.30;36.40
1614;DHT22;800;48.824;9.346;2023-04-15T15:15:07;18.20;36.70
1614;DHT22;800;48.824;9.346;2023-04-15T15:17:33;17.80;36.90
1614;DHT22;800;48.824;9.346;2023-04-15T15:19:59;17.50;37.50
1614;DHT22;800;48.824;9.346;2023-04-15T15:22:24;17.60;38.00
1614;DHT22;800;48.824;9.346;2023-04-15T15:24:50;17.30;38.40
1614;DHT22;800;48.824;9.346;2023-04-15T15:27:16;17.10;39.10
1614;DHT22;800;48.824;9.346;2023-04-15T15:29:41;17.00;39.40
1614;DHT22;800;48.824;9.346;2023-04-15T15:32:07;16.80;39.50
1614;DHT22;800;48.824;9.346;2023-04-15T15:34:32;16.70;40.40
1614;DHT22;800;48.824;9.346;2023-04-15T15:36:59;16.60;40.40
1614;DHT22;800;48.824;9.346;2023-04-15T15:39:25;16.60;41.20
1614;DHT22;800;48.824;9.346;2023-04-15T15:41:51;16.60;41.50
1614;DHT22;800;48.824;9.346;2023-04-15T15:44:16;16.70;41.60
1614;DHT22;800;48.824;9.346;2023-04-15T15:46:42;16.70;41.90
1614;DHT22;800;48.824;9.346;2023-04-15T15:49:07;16.60;42.40
1614;DHT22;800;48.824;9.346;2023-04-15T15:51:33;16.50;42.60
1614;DHT22;800;48.824;9.346;2023-04-15T15:53:59;16.60;43.00
1614;DHT22;800;48.824;9.346;2023-04-15T15:56:25;16.40;43.10
1614;DHT22;800;48.824;9.346;2023-04-15T15:58:51;16.40;43.60
1614;DHT22;800;48.824;9.346;2023-04-15T16:01:17;16.50;44.20
1614;DHT22;800;48.824;9.346;2023-04-15T16:03:42;16.50;44.40
1614;DHT22;800;48.824;9.346;2023-04-15T16:06:08;16.60;44.30
1614;DHT22;800;48.824;9.346;2023-04-15T16:08:33;16.50;45.00
1614;DHT22;800;48.824;9.346;2023-04-15T16:10:59;16.40;45.60
1614;DHT22;800;48.824;9.346;2023-04-15T16:13:24;16.50;46.70
1614;DHT22;800;48.824;9.346;2023-04-15T16:15:50;16.50;47.30
1614;DHT22;800;48.824;9.346;2023-04-15T16:18:16;16.30;49.40
1614;DHT22;800;48.824;9.346;2023-04-15T16:20:42;16.10;51.30
1614;DHT22;800;48.824;9.346;2023-04-15T16:23:15;16.20;52.20
1614;DHT22;800;48.824;9.346;2023-04-15T16:25:42;16.30;52.70
1614;DHT22;800;48.824;9.346;2023-04-15T16:28:08;16.20;53.50